Time;durP1;ratioP1;P1;durP2;ratioP2;P2;SDS_P1;SDS_P2;PMS_P1;PMS_P2;Temp;Humidity;BMP_temperature;BMP_pressure;BME280_temperature;BME280_humidity;BME280_pressure;Samples;Min_cycle;Max_cycle;Signal;HPM_P1;HPM_P2
2023/11/23 00:00:12;;;;;;;0.50;0.50;;;;;;;12.17;95.54;97289.91;5044665;28;20602;-70
2023/11/23 00:02:41;;;;;;;0.50;0.50;;;;;;;12.20;95.79;97305.81;5043288;28;20056;-70
2023/11/23 00:05:09;;;;;;;0.60;0.60;;;;;;;12.28;95.12;97308.72;5043248;28;20409;-71
2023/11/23 00:07:37;;;;;;;0.50;0.50;;;;;;;11.58;94.82;97205.69;5044161;28;20158;-70
2023/11/23 00:10:05;;;;;;;0.50;0.50;;;;;;;12.09;94.08;97270.75;5044348;28;20049;-72
2023/11/23 00:12:33;;;;;;;0.50;0.50;;;;;;;12.20;93.47;97275.25;5042759;28;20057;-70
2023/11/23 00:15:00;;;;;;;0.60;0.60;;;;;;;11.37;93.29;97138.78;5044148;28;20063;-71
2023/11/23 00:17:29;;;;;;;0.60;0.60;;;;;;;12.00;93.64;97250.75;5042219;28;20060;-70
2023/11/23 00:19:57;;;;;;;0.50;0.50;;;;;;;11.63;93.89;97191.53;5042448;28;20060;-70
2023/11/23 00:22:24;;;;;;;0.50;0.50;;;;;;;12.03;93.07;97300.81;5042536;28;20106;-70
2023/11/23 00:24:50;;;;;;;0.50;0.50;;;;;;;11.10;94.57;97162.09;5042662;28;20125;-71
2023/11/23 00:27:17;;;;;;;0.50;0.50;;;;;;;11.75;94.90;97277.34;5043637;28;20084;-71
2023/11/23 00:29:45;;;;;;;0.50;0.50;;;;;;;11.08;94.78;97181.88;5044165;28;20637;-71
2023/11/23 00:32:12;;;;;;;0.50;0.50;;;;;;;11.79;95.56;97301.19;5043006;28;20052;-71
2023/11/23 00:34:39;;;;;;;0.55;0.55;;;;;;;11.23;96.68;97210.66;5044249;28;20053;-71
2023/11/23 00:37:08;;;;;;;0.55;0.55;;;;;;;11.67;97.28;97311.69;5042570;28;20053;-70
2023/11/23 00:39:35;;;;;;;0.50;0.50;;;;;;;11.89;97.78;97345.00;5042611;28;20049;-71
2023/11/23 00:42:03;;;;;;;0.50;0.50;;;;;;;11.61;98.39;97327.03;5043678;28;20049;-72
2023/11/23 00:44:31;;;;;;;0.50;0.50;;;;;;;11.73;99.28;97346.28;5044273;28;20068;-72
2023/11/23 00:46:58;;;;;;;0.50;0.50;;;;;;;11.61;100.00;97341.72;5043840;28;20048;-71
2023/11/23 00:49:25;;;;;;;0.50;0.50;;;;;;;11.35;100.00;97330.53;5042468;28;20053;-71
2023/11/23 00:51:51;;;;;;;0.47;0.47;;;;;;;11.52;100.00;97345.91;5043581;28;20064;-71
2023/11/23 00:54:20;;;;;;;0.43;0.43;;;;;;;11.18;100.00;97314.34;5042719;28;20057;-70
2023/11/23 00:56:46;;;;;;;0.50;0.50;;;;;;;10.31;100.00;97172.94;5043705;28;20061;-71
2023/11/23 00:59:13;;;;;;;0.50;0.50;;;;;;;11.55;100.00;97356.25;5042327;28;20053;-71
2023/11/23 01:01:40;;;;;;;0.50;0.50;;;;;;;11.58;100.00;97366.63;5043691;28;20132;-70
2023/11/23 01:04:07;;;;;;;0.50;0.50;;;;;;;11.56;100.00;97355.88;5043598;28;20053;-68
2023/11/23 01:06:34;;;;;;;0.52;0.52;;;;;;;11.30;100.00;97338.34;5042009;28;20084;-70
2023/11/23 01:09:01;;;;;;;0.52;0.52;;;;;;;11.47;100.00;97346.19;5042643;28;20048;-70
2023/11/23 01:11:28;;;;;;;0.50;0.50;;;;;;;11.18;100.00;97296.91;5043668;28;20045;-69
2023/11/23 01:13:55;;;;;;;0.50;0.50;;;;;;;11.20;100.00;97305.66;5059668;28;20045;-69
2023/11/23 01:16:22;;;;;;;0.52;0.52;;;;;;;10.82;100.00;97244.75;5047156;28;20053;-68
2023/11/23 01:18:49;;;;;;;0.50;0.50;;;;;;;11.54;100.00;97421.25;5047710;28;20044;-68
2023/11/23 01:21:16;;;;;;;0.50;0.50;;;;;;;11.09;100.00;97296.34;5045603;28;20049;-70
2023/11/23 01:23:43;;;;;;;0.50;0.50;;;;;;;11.29;100.00;97309.81;5046157;28;20059;-69
2023/11/23 01:26:11;;;;;;;0.50;0.50;;;;;;;9.89;100.00;97091.81;5062688;28;20053;-69
2023/11/23 01:28:37;;;;;;;0.50;0.50;;;;;;;11.58;100.00;97350.78;5047386;28;20057;-69
2023/11/23 01:31:04;;;;;;;0.50;0.50;;;;;;;11.62;100.00;97373.00;5046081;28;20238;-70
2023/11/23 01:33:31;;;;;;;0.50;0.50;;;;;;;11.54;100.00;97371.31;5046777;28;20498;-69
2023/11/23 01:35:58;;;;;;;0.50;0.50;;;;;;;11.59;100.00;97362.66;5045834;28;20077;-68
2023/11/23 01:38:26;;;;;;;0.50;0.50;;;;;;;11.30;100.00;97338.34;5062157;28;20392;-68
2023/11/23 01:40:56;;;;;;;0.60;0.60;;;;;;;10.76;100.00;97257.31;5046973;28;20467;-68
2023/11/23 01:43:23;;;;;;;0.50;0.50;;;;;;;11.58;100.00;97403.50;5061947;28;20060;-68
2023/11/23 01:45:50;;;;;;;0.50;0.50;;;;;;;11.55;100.00;97367.34;5045324;28;20137;-70
2023/11/23 01:48:18;;;;;;;0.50;0.50;;;;;;;11.59;100.00;97384.84;5047018;28;20071;-69
2023/11/23 01:50:46;;;;;;;0.60;0.60;;;;;;;11.29;100.00;97342.28;5047213;28;20108;-68
2023/11/23 01:53:14;;;;;;;0.50;0.50;;;;;;;11.54;100.00;97394.28;5061668;28;20049;-69
2023/11/23 01:55:40;;;;;;;0.50;0.50;;;;;;;10.06;100.00;97312.75;5046756;28;20063;-69
2023/11/23 01:58:10;;;;;;;0.50;0.50;;;;;;;10.81;100.00;97290.25;5046947;28;20354;-68
2023/11/23 02:00:37;;;;;;;0.50;0.50;;;;;;;11.10;100.00;97331.22;5045272;28;20052;-68
2023/11/23 02:03:04;;;;;;;0.50;0.50;;;;;;;11.47;100.00;97396.94;5047082;28;20059;-68
2023/11/23 02:05:31;;;;;;;0.45;0.45;;;;;;;11.36;100.00;97378.47;5045673;28;20057;-67
2023/11/23 02:07:58;;;;;;;0.50;0.50;;;;;;;11.36;100.00;97403.44;5046091;28;20049;-68
2023/11/23 02:10:25;;;;;;;0.50;0.50;;;;;;;11.12;100.00;97365.75;5046430;28;20163;-69
2023/11/23 02:12:53;;;;;;;0.50;0.50;;;;;;;11.35;100.00;97401.84;5046508;28;20057;-69
2023/11/23 02:15:22;;;;;;;0.50;0.50;;;;;;;11.37;100.00;97405.84;5046387;28;20417;-69
2023/11/23 02:18:02;;;;;;;0.50;0.50;;;;;;;11.43;100.00;97415.47;5046206;28;20110;-69
2023/11/23 02:20:31;;;;;;;0.50;0.50;;;;;;;11.40;100.00;97407.06;5046603;28;20057;-70
2023/11/23 02:23:01;;;;;;;0.50;0.50;;;;;;;11.46;100.00;97408.41;5046170;28;20542;-69
2023/11/23 02:25:28;;;;;;;0.50;0.50;;;;;;;11.10;100.00;97361.72;5045516;28;20469;-69
2023/11/23 02:27:55;;;;;;;0.50;0.50;;;;;;;11.44;100.00;97421.84;5061228;28;20084;-69
2023/11/23 02:30:22;;;;;;;0.50;0.50;;;;;;;11.04;100.00;97385.34;5044852;28;20060;-69
2023/11/23 02:32:50;;;;;;;0.50;0.50;;;;;;;11.28;100.00;97421.13;5046376;28;20350;-68
2023/11/23 02:35:19;;;;;;;0.50;0.50;;;;;;;11.25;100.00;97424.63;5045882;28;20535;-68
2023/11/23 02:37:46;;;;;;;0.50;0.50;;;;;;;11.20;100.00;97427.69;5046254;28;20071;-68
2023/11/23 02:40:13;;;;;;;0.50;0.50;;;;;;;11.26;100.00;97420.66;5044638;28;20127;-68
2023/11/23 02:42:39;;;;;;;0.50;0.50;;;;;;;11.35;100.00;97429.59;5045809;28;20141;-68
2023/11/23 02:45:11;;;;;;;0.50;0.50;;;;;;;10.51;100.00;97334.38;5046015;28;20057;-69
2023/11/23 02:47:38;;;;;;;0.50;0.50;;;;;;;10.97;100.00;97424.03;5045687;28;20045;-69
2023/11/23 02:50:05;;;;;;;0.50;0.50;;;;;;;11.11;100.00;97429.88;5029525;28;20053;-68
2023/11/23 02:52:32;;;;;;;0.50;0.50;;;;;;;10.68;100.00;97351.34;5025513;28;20157;-70
2023/11/23 02:54:59;;;;;;;0.50;0.50;;;;;;;11.07;100.00;97412.34;5024916;28;20084;-68
2023/11/23 02:57:25;;;;;;;0.47;0.47;;;;;;;11.08;100.00;97422.28;5025726;28;20045;-70
2023/11/23 02:59:52;;;;;;;0.50;0.50;;;;;;;10.79;100.00;97389.56;5025700;28;20060;-69
2023/11/23 03:02:20;;;;;;;0.50;0.50;;;;;;;11.08;100.00;97438.91;5025510;28;20060;-69
2023/11/23 03:04:47;;;;;;;0.50;0.50;;;;;;;9.35;100.00;97160.13;5024093;28;20509;-67
2023/11/23 03:07:14;;;;;;;0.50;0.50;;;;;;;11.14;100.00;97445.78;5025092;28;20072;-67
2023/11/23 03:09:40;;;;;;;0.50;0.50;;;;;;;10.97;100.00;97407.41;5025770;28;20421;-67
2023/11/23 03:12:07;;;;;;;0.50;0.50;;;;;;;11.18;100.00;97441.09;5040402;28;20058;-67
2023/11/23 03:14:34;;;;;;;0.50;0.50;;;;;;;11.15;100.00;97441.81;5040611;28;20053;-69
2023/11/23 03:17:03;;;;;;;0.47;0.47;;;;;;;11.12;100.00;97442.56;5024821;28;20064;-67
2023/11/23 03:19:30;;;;;;;0.50;0.50;;;;;;;11.11;100.00;97446.50;5025897;28;20587;-67
2023/11/23 03:21:58;;;;;;;0.57;0.57;;;;;;;10.48;100.00;97369.13;5024600;28;20049;-68
2023/11/23 03:24:25;;;;;;;0.50;0.50;;;;;;;11.03;100.00;97451.09;5024958;28;20049;-67
2023/11/23 03:26:52;;;;;;;0.50;0.50;;;;;;;11.10;100.00;97445.69;5025349;28;20068;-67
2023/11/23 03:29:18;;;;;;;0.50;0.50;;;;;;;11.13;100.00;97444.19;5040394;28;20060;-69
2023/11/23 03:31:45;;;;;;;0.40;0.40;;;;;;;11.02;100.00;97432.06;5040628;28;20057;-68
2023/11/23 03:34:12;;;;;;;0.50;0.50;;;;;;;11.10;100.00;97445.69;5025386;28;20075;-66
2023/11/23 03:36:39;;;;;;;0.50;0.50;;;;;;;10.66;100.00;97397.22;5023656;28;20522;-67
2023/11/23 03:39:06;;;;;;;0.50;0.50;;;;;;;11.04;100.00;97458.25;5025365;28;20049;-66
2023/11/23 03:41:34;;;;;;;0.50;0.50;;;;;;;10.76;100.00;97406.94;5025247;28;20119;-66
2023/11/23 03:44:01;;;;;;;0.50;0.50;;;;;;;11.05;100.00;97450.75;5040247;28;20053;-66
2023/11/23 03:46:27;;;;;;;0.50;0.50;;;;;;;10.66;100.00;97447.09;5024852;28;20049;-66
2023/11/23 03:48:56;;;;;;;0.50;0.50;;;;;;;10.44;100.00;97451.34;5030889;28;20049;-67
2023/11/23 03:51:26;;;;;;;0.50;0.50;;;;;;;10.42;100.00;97459.19;5043264;28;20049;-68
2023/11/23 03:53:53;;;;;;;0.43;0.43;;;;;;;9.27;100.00;97318.69;5044445;28;20143;-68
2023/11/23 03:56:20;;;;;;;0.40;0.40;;;;;;;9.88;100.00;97400.06;5044746;28;20049;-67
2023/11/23 03:58:47;;;;;;;0.40;0.40;;;;;;;10.34;100.00;97479.56;5044580;28;20128;-67
2023/11/23 04:01:14;;;;;;;0.43;0.43;;;;;;;10.58;100.00;97468.28;5059520;28;20107;-68
2023/11/23 04:03:44;;;;;;;0.50;0.50;;;;;;;10.58;100.00;97479.38;5044640;28;20088;-68
2023/11/23 04:06:11;;;;;;;0.50;0.50;;;;;;;10.18;100.00;97436.44;5044442;28;20057;-68
2023/11/23 04:08:39;;;;;;;0.50;0.50;;;;;;;10.14;100.00;97472.34;5043124;28;20057;-67
2023/11/23 04:11:08;;;;;;;0.40;0.40;;;;;;;10.41;100.00;97478.94;5042796;28;20048;-67
2023/11/23 04:13:35;;;;;;;0.40;0.40;;;;;;;10.52;100.00;97491.06;5044623;28;20073;-67
2023/11/23 04:16:02;;;;;;;0.50;0.50;;;;;;;10.55;100.00;97499.47;5059233;28;20056;-67
2023/11/23 04:18:29;;;;;;;0.40;0.40;;;;;;;10.31;100.00;97447.06;5043868;28;20438;-67
2023/11/23 04:20:56;;;;;;;0.50;0.50;;;;;;;9.77;100.00;97360.25;5044326;28;20052;-67
2023/11/23 04:23:22;;;;;;;0.45;0.45;;;;;;;10.46;100.00;97493.31;5044047;28;20075;-68
2023/11/23 04:25:50;;;;;;;0.40;0.40;;;;;;;10.49;100.00;97497.34;5044244;28;20056;-69
2023/11/23 04:28:17;;;;;;;0.50;0.50;;;;;;;10.31;100.00;97452.59;5042714;28;20053;-68
2023/11/23 04:30:44;;;;;;;0.50;0.50;;;;;;;10.73;100.00;97497.13;5043181;28;20331;-68
2023/11/23 04:33:11;;;;;;;0.40;0.40;;;;;;;10.40;100.00;97494.75;5059184;28;20250;-66
2023/11/23 04:35:38;;;;;;;0.50;0.50;;;;;;;10.47;100.00;97445.06;5042486;28;20053;-68
2023/11/23 04:38:04;;;;;;;0.57;0.57;;;;;;;10.83;100.00;97473.59;5042393;28;20147;-68
2023/11/23 04:40:31;;;;;;;0.47;0.47;;;;;;;10.90;100.00;97491.19;5043743;28;20049;-67
2023/11/23 04:42:58;;;;;;;0.40;0.40;;;;;;;10.54;100.00;97486.78;5043636;28;20059;-67
2023/11/23 04:45:24;;;;;;;0.45;0.45;;;;;;;10.46;100.00;97493.31;5059006;28;20060;-68
2023/11/23 04:47:52;;;;;;;0.50;0.50;;;;;;;10.29;100.00;97503.97;5058786;28;20126;-67
2023/11/23 04:50:19;;;;;;;0.50;0.50;;;;;;;10.39;100.00;97501.44;5032965;28;20155;-68
2023/11/23 04:52:48;;;;;;;0.50;0.50;;;;;;;10.11;100.00;97431.53;5045047;28;20052;-68
2023/11/23 04:55:15;;;;;;;0.50;0.50;;;;;;;10.53;100.00;97512.06;5030334;28;20056;-68
2023/11/23 04:57:41;;;;;;;0.50;0.50;;;;;;;10.50;100.00;97515.56;5028900;28;20068;-68
2023/11/23 05:00:10;;;;;;;0.40;0.40;;;;;;;10.59;100.00;97514.22;5045761;28;20134;-67
2023/11/23 05:02:42;;;;;;;0.43;0.43;;;;;;;10.31;100.00;97479.47;5030251;28;20053;-67
2023/11/23 05:05:13;;;;;;;0.43;0.43;;;;;;;10.42;100.00;97514.56;5030552;28;20055;-67
2023/11/23 05:07:40;;;;;;;0.45;0.45;;;;;;;9.99;100.00;97473.09;5030417;28;20060;-67
2023/11/23 05:10:10;;;;;;;0.40;0.40;;;;;;;10.13;100.00;97512.25;5045167;28;20674;-67
2023/11/23 05:12:38;;;;;;;0.40;0.40;;;;;;;9.27;100.00;97423.72;5029990;28;20060;-68
2023/11/23 05:15:05;;;;;;;0.40;0.40;;;;;;;10.14;100.00;97524.94;5045774;28;20083;-66
2023/11/23 05:17:32;;;;;;;0.50;0.50;;;;;;;9.88;100.00;97521.81;5029717;28;20053;-67
2023/11/23 05:19:59;;;;;;;0.40;0.40;;;;;;;9.87;100.00;97520.22;5030443;28;20324;-67
2023/11/23 05:22:26;;;;;;;0.47;0.47;;;;;;;10.17;100.00;97528.94;5029770;28;20138;-68
2023/11/23 05:24:53;;;;;;;0.45;0.45;;;;;;;9.90;100.00;97458.63;5028754;28;20061;-67
2023/11/23 05:27:20;;;;;;;0.40;0.40;;;;;;;9.94;100.00;97476.13;5045315;28;20721;-67
2023/11/23 05:29:47;;;;;;;0.40;0.40;;;;;;;9.97;100.00;97530.78;5030340;28;20041;-67
2023/11/23 05:32:18;;;;;;;0.43;0.43;;;;;;;9.95;100.00;97535.84;5044499;28;20541;-67
2023/11/23 05:34:45;;;;;;;0.40;0.40;;;;;;;10.08;100.00;97536.63;5045197;28;20111;-67
2023/11/23 05:37:12;;;;;;;0.40;0.40;;;;;;;9.92;100.00;97544.88;5029929;28;20433;-67
2023/11/23 05:39:39;;;;;;;0.50;0.50;;;;;;;10.04;100.00;97539.25;5028397;28;20053;-67
2023/11/23 05:42:10;;;;;;;0.40;0.40;;;;;;;9.75;100.00;97523.06;5028801;28;20053;-68
2023/11/23 05:44:37;;;;;;;0.40;0.40;;;;;;;9.32;100.00;97513.88;5029053;28;20061;-68
2023/11/23 05:47:04;;;;;;;0.40;0.40;;;;;;;9.52;100.00;97546.88;5041401;28;20053;-67
2023/11/23 05:49:31;;;;;;;0.43;0.43;;;;;;;9.46;100.00;97553.81;5048948;28;20049;-67
2023/11/23 05:51:58;;;;;;;0.50;0.50;;;;;;;9.24;100.00;97512.88;5047949;28;20135;-67
2023/11/23 05:54:24;;;;;;;0.40;0.40;;;;;;;9.45;100.00;97557.75;5048119;28;20055;-68
2023/11/23 05:56:51;;;;;;;0.40;0.40;;;;;;;9.32;100.00;97566.41;5048660;28;20044;-67
2023/11/23 05:59:18;;;;;;;0.40;0.40;;;;;;;9.26;100.00;97571.38;5049711;28;20091;-70
2023/11/23 06:01:45;;;;;;;0.40;0.40;;;;;;;9.33;100.00;97566.06;5043398;28;20056;-68
2023/11/23 06:04:12;;;;;;;0.40;0.40;;;;;;;9.16;100.00;97538.69;5046098;28;20057;-67
2023/11/23 06:06:39;;;;;;;0.40;0.40;;;;;;;9.47;100.00;97549.88;5044709;28;20110;-69
2023/11/23 06:09:08;;;;;;;0.45;0.45;;;;;;;9.49;100.00;97519.13;5044830;28;20153;-69
2023/11/23 06:11:36;;;;;;;0.40;0.40;;;;;;;9.89;100.00;97578.78;5044493;28;20064;-70
2023/11/23 06:14:03;;;;;;;0.40;0.40;;;;;;;10.14;100.00;97585.03;5044535;28;20051;-70
2023/11/23 06:16:29;;;;;;;0.40;0.40;;;;;;;9.89;100.00;97587.09;5045577;28;20520;-69
2023/11/23 06:18:56;;;;;;;0.43;0.43;;;;;;;9.88;100.00;97588.22;5046301;28;20061;-68
2023/11/23 06:21:25;;;;;;;0.40;0.40;;;;;;;8.85;100.00;97444.59;5044445;28;20519;-68
2023/11/23 06:23:52;;;;;;;0.40;0.40;;;;;;;9.48;100.00;97557.03;5046088;28;20439;-67
2023/11/23 06:26:20;;;;;;;0.40;0.40;;;;;;;9.59;100.00;97602.41;5045435;28;20053;-69
2023/11/23 06:28:48;;;;;;;0.40;0.40;;;;;;;9.32;100.00;97550.63;5046178;28;20067;-67
2023/11/23 06:31:15;;;;;;;0.40;0.40;;;;;;;9.39;100.00;97556.34;5045275;28;20049;-67
2023/11/23 06:33:41;;;;;;;0.40;0.40;;;;;;;9.80;100.00;97600.25;5045671;28;20051;-68
2023/11/23 06:36:10;;;;;;;0.43;0.43;;;;;;;9.90;100.00;97608.06;5043984;28;20064;-68
2023/11/23 06:38:36;;;;;;;0.40;0.40;;;;;;;9.78;100.00;97610.06;5044455;28;20053;-68
2023/11/23 06:41:03;;;;;;;0.40;0.40;;;;;;;9.34;100.00;97556.63;5046067;28;20084;-68
2023/11/23 06:43:30;;;;;;;0.43;0.43;;;;;;;8.23;100.00;97416.63;5045609;28;20057;-70
2023/11/23 06:45:57;;;;;;;0.40;0.40;;;;;;;9.36;100.00;97609.59;5044190;28;20060;-68
2023/11/23 06:48:24;;;;;;;0.40;0.40;;;;;;;9.35;100.00;97608.00;5045442;28;20045;-66
2023/11/23 06:50:51;;;;;;;0.40;0.40;;;;;;;8.99;100.00;97594.22;5045346;28;20206;-68
2023/11/23 06:53:18;;;;;;;0.50;0.50;;;;;;;9.59;100.00;97607.94;5060170;28;20494;-68
2023/11/23 06:55:45;;;;;;;0.43;0.43;;;;;;;9.63;100.00;97614.38;5045606;28;20053;-69
2023/11/23 06:58:12;;;;;;;0.47;0.47;;;;;;;9.27;100.00;97539.81;5039983;28;20045;-70
2023/11/23 07:00:39;;;;;;;0.40;0.40;;;;;;;9.21;100.00;97524.63;5041549;28;20060;-64
2023/11/23 07:03:05;;;;;;;0.40;0.40;;;;;;;8.69;100.00;97429.91;5039399;28;20048;-69
2023/11/23 07:05:32;;;;;;;0.40;0.40;;;;;;;8.65;100.00;97462.13;5041388;28;20053;-70
2023/11/23 07:07:59;;;;;;;0.40;0.40;;;;;;;9.71;100.00;97610.66;5043863;28;20060;-68
2023/11/23 07:10:26;;;;;;;0.40;0.40;;;;;;;7.38;100.00;97275.19;5042244;28;20055;-70
2023/11/23 07:12:54;;;;;;;0.43;0.43;;;;;;;9.50;100.00;97563.00;5042133;28;20106;-67
2023/11/23 07:15:24;;;;;;;0.40;0.40;;;;;;;7.50;100.00;97240.16;5030654;28;20142;-72
2023/11/23 07:17:52;;;;;;;0.50;0.50;;;;;;;9.43;100.00;97582.16;5043755;28;20064;-68
2023/11/23 07:20:19;;;;;;;0.40;0.40;;;;;;;9.59;100.00;97602.41;5045119;28;20587;-64
2023/11/23 07:22:45;;;;;;;0.47;0.47;;;;;;;9.90;100.00;97613.59;5044218;28;20059;-68
2023/11/23 07:25:14;;;;;;;0.40;0.40;;;;;;;9.57;100.00;97548.59;5043512;28;20462;-62
2023/11/23 07:27:41;;;;;;;0.40;0.40;;;;;;;10.38;100.00;97624.47;5039987;28;20053;-63
2023/11/23 07:30:08;;;;;;;0.40;0.40;;;;;;;9.12;100.00;97449.31;5042328;28;20439;-69
2023/11/23 07:32:35;;;;;;;0.50;0.50;;;;;;;9.83;100.00;97544.19;5042136;28;20059;-68
2023/11/23 07:35:04;;;;;;;0.40;0.40;;;;;;;10.44;100.00;97617.50;5043904;28;20053;-69
2023/11/23 07:37:33;;;;;;;0.50;0.50;;;;;;;9.69;100.00;97466.34;5043845;28;20052;-70
2023/11/23 07:40:05;;;;;;;0.50;0.50;;;;;;;10.21;100.00;97536.19;5043375;28;20516;-63
2023/11/23 07:42:32;;;;;;;0.50;0.50;;;;;;;10.06;100.00;97489.91;5040471;28;20041;-75
2023/11/23 07:44:59;;;;;;;0.50;0.50;;;;;;;10.63;100.00;97570.53;5042369;28;20048;-70
2023/11/23 07:47:27;;;;;;;0.40;0.40;;;;;;;10.47;100.00;97558.63;5037936;28;20049;-70
2023/11/23 07:49:55;;;;;;;0.50;0.50;;;;;;;10.99;100.00;97596.31;5058731;28;20056;-66
2023/11/23 07:52:22;;;;;;;0.40;0.40;;;;;;;11.12;100.00;97636.63;5041332;28;20055;-70
2023/11/23 07:54:49;;;;;;;0.50;0.50;;;;;;;10.75;100.00;97550.22;5041917;28;20049;-69
2023/11/23 07:57:16;;;;;;;0.50;0.50;;;;;;;10.05;100.00;97540.06;5035414;28;20102;-67
2023/11/23 07:59:43;;;;;;;0.50;0.50;;;;;;;10.73;100.00;97644.78;5043857;28;20069;-67
2023/11/23 08:02:10;;;;;;;0.40;0.40;;;;;;;9.65;100.00;97550.41;5042945;28;20059;-68
2023/11/23 08:04:37;;;;;;;0.50;0.50;;;;;;;10.06;100.00;97641.31;5043840;28;20053;-66
2023/11/23 08:07:04;;;;;;;0.50;0.50;;;;;;;9.80;100.00;97546.88;5043162;28;20503;-65
2023/11/23 08:09:31;;;;;;;0.40;0.40;;;;;;;10.57;100.00;97619.03;5042310;28;20059;-70
2023/11/23 08:11:57;;;;;;;0.50;0.50;;;;;;;9.72;100.00;97457.34;5043407;28;20139;-68
2023/11/23 08:14:24;;;;;;;0.40;0.40;;;;;;;10.58;100.00;97601.25;5043420;28;20128;-64
2023/11/23 08:16:51;;;;;;;0.50;0.50;;;;;;;10.87;100.00;97607.50;5040447;28;20053;-71
2023/11/23 08:19:18;;;;;;;0.50;0.50;;;;;;;10.75;100.00;97560.50;5041209;28;20079;-71
2023/11/23 08:21:45;;;;;;;0.45;0.45;;;;;;;9.53;100.00;97352.13;5039872;28;20586;-71
2023/11/23 08:24:16;;;;;;;0.50;0.50;;;;;;;10.77;100.00;97578.38;5020810;28;20526;-71
2023/11/23 08:26:44;;;;;;;0.50;0.50;;;;;;;11.25;100.00;97624.28;5040285;28;20128;-68
2023/11/23 08:29:11;;;;;;;0.50;0.50;;;;;;;11.19;100.00;97570.28;5039762;28;20079;-66
2023/11/23 08:31:39;;;;;;;0.50;0.50;;;;;;;11.45;100.00;97623.16;5042837;28;20053;-63
2023/11/23 08:34:07;;;;;;;0.50;0.50;;;;;;;11.55;100.00;97623.41;5042358;28;20051;-67
2023/11/23 08:36:35;;;;;;;0.50;0.50;;;;;;;11.68;99.83;97621.34;5043351;28;20084;-71
2023/11/23 08:39:05;;;;;;;0.50;0.50;;;;;;;11.29;100.00;97591.88;5042928;28;20049;-69
2023/11/23 08:41:32;;;;;;;0.50;0.50;;;;;;;11.62;99.44;97595.00;5041405;28;20041;-68
2023/11/23 08:43:59;;;;;;;0.50;0.50;;;;;;;11.63;98.82;97603.00;5042285;28;20063;-70
2023/11/23 08:46:27;;;;;;;0.50;0.50;;;;;;;11.57;98.99;97623.06;5039458;28;20057;-71
2023/11/23 08:48:54;;;;;;;0.50;0.50;;;;;;;11.06;100.00;97543.81;5041876;28;20160;-73
2023/11/23 08:51:22;;;;;;;0.50;0.50;;;;;;;11.24;99.90;97539.50;5043005;28;20173;-69
2023/11/23 08:53:49;;;;;;;0.50;0.50;;;;;;;11.63;99.06;97602.19;5043381;28;20183;-68
2023/11/23 08:56:17;;;;;;;0.50;0.50;;;;;;;11.54;99.46;97609.91;5041818;28;20138;-68
2023/11/23 08:58:44;;;;;;;0.50;0.50;;;;;;;11.56;99.76;97602.00;5042978;28;20048;-68
2023/11/23 09:01:10;;;;;;;0.60;0.60;;;;;;;11.32;100.00;97575.31;5041491;28;20598;-69
2023/11/23 09:03:38;;;;;;;0.50;0.50;;;;;;;10.67;100.00;97455.03;5041522;28;20056;-67
2023/11/23 09:06:05;;;;;;;0.50;0.50;;;;;;;10.39;99.37;97410.06;5041602;28;20060;-68
2023/11/23 09:08:32;;;;;;;0.50;0.50;;;;;;;11.28;99.15;97568.91;5042726;28;20472;-67
2023/11/23 09:10:59;;;;;;;0.50;0.50;;;;;;;11.23;99.86;97576.69;5043204;28;20110;-70
2023/11/23 09:13:26;;;;;;;0.50;0.50;;;;;;;10.56;100.00;97451.22;5042507;28;20505;-71
2023/11/23 09:15:56;;;;;;;0.50;0.50;;;;;;;11.61;100.00;97598.94;5041809;28;20063;-69
2023/11/23 09:18:23;;;;;;;0.50;0.50;;;;;;;11.68;100.00;97604.69;5043014;28;20057;-69
2023/11/23 09:20:50;;;;;;;0.50;0.50;;;;;;;11.44;99.27;97577.19;5025597;28;20140;-68
2023/11/23 09:23:18;;;;;;;0.50;0.50;;;;;;;11.72;99.21;97605.56;5036099;28;20053;-70
2023/11/23 09:25:45;;;;;;;0.50;0.50;;;;;;;11.12;97.29;97496.03;5041871;28;20063;-67
2023/11/23 09:28:13;;;;;;;0.50;0.50;;;;;;;11.76;98.14;97612.00;5039729;28;20439;-69
2023/11/23 09:30:41;;;;;;;0.50;0.50;;;;;;;11.90;97.97;97598.44;5042825;28;20056;-66
2023/11/23 09:33:09;;;;;;;0.50;0.50;;;;;;;11.65;96.56;97599.88;5039933;28;20056;-67
2023/11/23 09:35:38;;;;;;;0.50;0.50;;;;;;;11.70;98.30;97596.78;5044955;28;20084;-67
2023/11/23 09:38:07;;;;;;;0.50;0.50;;;;;;;10.92;99.19;97432.63;5046782;28;20088;-67
2023/11/23 09:40:34;;;;;;;0.50;0.50;;;;;;;11.23;99.19;97460.22;5045104;28;20059;-66
2023/11/23 09:43:01;;;;;;;0.50;0.50;;;;;;;11.70;98.46;97535.75;5046499;28;20424;-69
2023/11/23 09:45:29;;;;;;;0.50;0.50;;;;;;;12.02;97.81;97587.16;5043167;28;20065;-66
2023/11/23 09:47:56;;;;;;;0.50;0.50;;;;;;;11.57;97.21;97512.06;5059616;28;20068;-68
2023/11/23 09:50:27;;;;;;;0.50;0.50;;;;;;;12.18;96.25;97574.81;5042540;28;20048;-70
2023/11/23 09:52:55;;;;;;;0.50;0.50;;;;;;;11.73;96.04;97504.47;5059394;28;20597;-69
2023/11/23 09:55:23;;;;;;;0.50;0.50;;;;;;;12.27;96.07;97566.22;5043458;28;20041;-64
2023/11/23 09:57:49;;;;;;;0.50;0.50;;;;;;;12.35;94.38;97572.72;5043950;28;20060;-70
2023/11/23 10:00:18;;;;;;;0.60;0.60;;;;;;;11.23;94.59;97388.13;5044982;28;20563;-69
2023/11/23 10:02:49;;;;;;;0.50;0.50;;;;;;;11.84;94.47;97486.06;5044568;28;20068;-69
2023/11/23 10:05:17;;;;;;;0.50;0.50;;;;;;;12.05;94.44;97519.78;5046066;28;20484;-69
2023/11/23 10:07:45;;;;;;;0.60;0.60;;;;;;;12.35;95.63;97573.50;5045738;28;20053;-70
2023/11/23 10:10:13;;;;;;;0.50;0.50;;;;;;;11.80;94.44;97441.59;5046232;28;20041;-66
2023/11/23 10:12:40;;;;;;;0.50;0.50;;;;;;;12.18;94.95;97507.34;5060669;28;20068;-66
2023/11/23 10:15:10;;;;;;;0.60;0.60;;;;;;;12.29;92.51;97518.63;5046066;28;20166;-69
2023/11/23 10:17:40;;;;;;;0.50;0.50;;;;;;;11.44;93.31;97386.59;5060329;28;20516;-70
2023/11/23 10:20:17;;;;;;;0.57;0.57;;;;;;;12.34;93.79;97544.13;5045975;28;20511;-71
2023/11/23 10:22:45;;;;;;;0.50;0.50;;;;;;;11.42;93.41;97407.53;5044198;28;20430;-67
2023/11/23 10:25:35;;;;;;;0.60;0.60;;;;;;;11.36;93.04;97376.53;5044402;28;20511;-71
2023/11/23 10:28:05;;;;;;;0.50;0.50;;;;;;;12.35;93.07;97533.81;5046228;28;20053;-67
2023/11/23 10:30:36;;;;;;;0.50;0.50;;;;;;;12.18;92.36;97502.59;5044610;28;20128;-70
2023/11/23 10:33:09;;;;;;;0.50;0.50;;;;;;;12.17;91.74;97494.63;5060816;28;20057;-70
2023/11/23 10:35:50;;;;;;;0.50;0.50;;;;;;;12.50;91.60;97525.38;5044167;28;20060;-66
2023/11/23 10:38:19;;;;;;;0.50;0.50;;;;;;;12.24;91.65;97489.19;5045784;28;20049;-70
2023/11/23 10:40:51;;;;;;;0.60;0.60;;;;;;;11.79;90.05;97390.00;5045386;28;20508;-71
2023/11/23 10:43:18;;;;;;;0.50;0.50;;;;;;;11.92;89.96;97432.28;5045698;28;20055;-72
2023/11/23 10:45:48;;;;;;;0.50;0.50;;;;;;;11.82;89.08;97394.03;5045520;28;20052;-67
2023/11/23 10:48:16;;;;;;;0.60;0.60;;;;;;;11.64;89.66;97376.25;5060156;28;20049;-70
2023/11/23 10:50:44;;;;;;;0.50;0.50;;;;;;;12.49;89.46;97512.63;5045354;28;20404;-68
2023/11/23 10:53:14;;;;;;;0.50;0.50;;;;;;;12.30;91.52;97503.59;5043897;28;20435;-71
2023/11/23 10:55:41;;;;;;;0.50;0.50;;;;;;;11.63;93.54;97419.84;5038891;28;20148;-68
2023/11/23 10:58:14;;;;;;;0.50;0.50;;;;;;;12.10;94.30;97483.38;5057371;28;20044;-68
2023/11/23 11:00:42;;;;;;;0.50;0.50;;;;;;;12.13;94.54;97488.19;5037046;28;20084;-66
2023/11/23 11:03:11;;;;;;;0.40;0.40;;;;;;;12.03;95.79;97477.69;5044852;28;20132;-65
2023/11/23 11:05:45;;;;;;;0.50;0.50;;;;;;;11.77;98.11;97480.38;5043682;28;20064;-69
2023/11/23 11:08:18;;;;;;;0.50;0.50;;;;;;;11.31;100.00;97473.88;5041105;28;20090;-67
2023/11/23 11:10:48;;;;;;;0.50;0.50;;;;;;;11.59;100.00;97479.19;5044299;28;20087;-69
2023/11/23 11:13:17;;;;;;;0.50;0.50;;;;;;;11.46;100.00;97441.69;5044949;28;20049;-67
2023/11/23 11:16:06;;;;;;;0.50;0.50;;;;;;;11.74;100.00;97470.03;5048251;28;20052;-66
2023/11/23 11:18:35;;;;;;;0.50;0.50;;;;;;;11.77;100.00;97458.19;5042760;28;20591;-67
2023/11/23 11:21:12;;;;;;;0.50;0.50;;;;;;;11.65;100.00;97458.34;2740738;28;10022510;-65
2023/11/23 11:23:43;;;;;;;0.52;0.52;;;;;;;11.57;98.54;97435.16;4437262;28;10000197;-59
2023/11/23 11:26:18;;;;;;;0.50;0.50;;;;;;;11.12;98.15;97399.00;5043042;28;20079;-61
2023/11/23 11:28:57;;;;;;;0.50;0.50;;;;;;;11.78;99.40;97454.22;5043765;28;20110;-64
2023/11/23 11:31:35;;;;;;;0.50;0.50;;;;;;;11.87;98.00;97460.38;5040787;28;20075;-64